MMHO/HMO METAR and TAF weather

Enter ICAO airport designator
Station Type Date Time Source
MMHO METAR 2019/08/24 17:40 UTC NOAA

MMHO 241740Z 13006KT 10SM BKN030 OVC090 28/23 A3004 RMK SLP166 52016 932 8/57/ LWR SC


Station Type Date Time Source
MMHO Decoded METAR 2019/08/24 17:40 UTC NOAA

Station name not available
Aug 24, 2019 - 01:40 PM EDT / 2019.08.24 1740 UTC
Wind: from the SE (130 degrees) at 7 MPH (6 KT):0
Visibility: 10 mile(s):0
Sky conditions: overcast
Temperature: 82 F (28 C)
Dew Point: 73 F (23 C)
Relative Humidity: 74%
Pressure (altimeter): 30.04 in. Hg (1017 hPa)
Pressure tendency: 0.05 inches (1.6 hPa) higher than three hours ago
ob: MMHO 241740Z 13006KT 10SM BKN030 OVC090 28/23 A3004 RMK SLP166 52016 932 8/57/ LWR SC
cycle: 17

Station Type Date Time Source
MMHO TAF 2019/08/24 18:12 UTC NOAA

TAF MMHO 241709Z 2418/2518 14010KT P6SM BKN030 OVC090
TEMPO 2421/2501 3SM TSRA OVC020CB
FM250300 14010KT P6SM -RA BKN020 BKN070
FM250800 04010KT 5SM RA SCT008 OVC020CB
TEMPO 2512/2515 3SM RA OVC010CB

Example: see airport list